createdAt,value
2022-12-23T00:00:54.892Z,6.87
2022-12-23T00:04:16.234Z,6.89
2022-12-23T00:07:37.971Z,6.90
2022-12-23T00:11:01.235Z,6.92
2022-12-23T00:14:36.444Z,6.93
2022-12-23T00:17:57.873Z,6.93
2022-12-23T00:21:19.348Z,6.92
2022-12-23T00:24:40.613Z,6.91
2022-12-23T00:28:03.733Z,6.90
2022-12-23T00:31:26.442Z,6.87
2022-12-23T00:34:47.740Z,6.85
2022-12-23T00:38:09.165Z,6.81
2022-12-23T00:41:48.786Z,6.80
2022-12-23T00:45:16.472Z,6.79
2022-12-23T00:48:55.447Z,6.76
2022-12-23T00:52:16.922Z,6.71
2022-12-23T00:55:38.773Z,6.69
2022-12-23T00:59:00.929Z,6.66
2022-12-23T01:02:41.281Z,6.62
2022-12-23T01:06:03.860Z,6.60
2022-12-23T01:09:26.064Z,6.56
2022-12-23T01:12:47.428Z,6.55
2022-12-23T01:16:16.838Z,6.52
2022-12-23T01:19:40.783Z,6.52
2022-12-23T01:23:02.435Z,6.51
2022-12-23T01:26:24.224Z,6.51
2022-12-23T01:29:46.995Z,6.52
2022-12-23T01:33:09.054Z,6.55
2022-12-23T01:36:32.450Z,6.54
2022-12-23T01:39:53.821Z,6.54
2022-12-23T01:43:17.373Z,6.54
2022-12-23T01:46:38.851Z,6.54
2022-12-23T01:50:06.017Z,6.53
2022-12-23T01:53:32.587Z,6.49
2022-12-23T01:56:54.178Z,6.53
2022-12-23T02:00:34.147Z,6.51
2022-12-23T02:03:58.764Z,6.51
2022-12-23T02:07:38.110Z,6.49
2022-12-23T02:11:28.281Z,6.49
2022-12-23T02:15:31.262Z,6.49
2022-12-23T02:19:12.563Z,6.47
2022-12-23T02:22:55.759Z,6.46
2022-12-23T02:26:49.018Z,6.44
2022-12-23T02:30:37.980Z,6.45
2022-12-23T02:34:08.047Z,6.45
2022-12-23T02:37:37.053Z,6.45
2022-12-23T02:41:08.369Z,6.46
2022-12-23T02:44:37.361Z,6.48
2022-12-23T02:48:05.911Z,6.50
2022-12-23T02:51:32.806Z,6.51
2022-12-23T02:55:00.223Z,6.49
2022-12-23T02:58:28.254Z,6.48
2022-12-23T03:01:52.014Z,6.43
2022-12-23T03:05:30.681Z,6.43
2022-12-23T03:08:55.614Z,6.43
2022-12-23T03:12:28.489Z,6.42
2022-12-23T03:15:56.944Z,6.43
2022-12-23T03:19:27.180Z,6.42
2022-12-23T03:23:00.171Z,6.42
2022-12-23T03:26:26.286Z,6.41
2022-12-23T03:29:55.281Z,6.37
2022-12-23T03:33:20.528Z,6.32
2022-12-23T03:36:47.942Z,6.26
2022-12-23T03:40:16.148Z,6.27
2022-12-23T03:43:48.323Z,6.27
2022-12-23T03:47:15.962Z,6.25
2022-12-23T03:50:41.517Z,6.25
2022-12-23T03:54:11.016Z,6.18
2022-12-23T03:57:39.771Z,6.10
2022-12-23T04:01:11.015Z,6.08
2022-12-23T04:04:46.444Z,6.08
2022-12-23T04:08:14.298Z,6.07
2022-12-23T04:11:37.530Z,6.05
2022-12-23T04:15:00.269Z,6.01
2022-12-23T04:18:21.846Z,6.00
2022-12-23T04:21:43.341Z,6.00
2022-12-23T04:25:05.700Z,5.99
2022-12-23T04:28:27.366Z,5.98
2022-12-23T04:31:49.945Z,5.94
2022-12-23T04:35:13.257Z,5.91
2022-12-23T04:38:34.990Z,5.91
2022-12-23T04:41:56.707Z,5.92
2022-12-23T04:45:18.502Z,5.92
2022-12-23T04:48:41.646Z,5.92
2022-12-23T04:52:03.425Z,5.93
2022-12-23T04:55:25.159Z,5.92
2022-12-23T04:58:48.023Z,5.90
2022-12-23T05:02:09.680Z,5.90
2022-12-23T05:05:32.837Z,5.90
2022-12-23T05:08:54.733Z,5.88
2022-12-23T05:12:16.136Z,5.87
2022-12-23T05:15:37.876Z,5.87
2022-12-23T05:18:59.536Z,5.88
2022-12-23T05:22:22.447Z,5.89
2022-12-23T05:25:43.802Z,5.87
2022-12-23T05:29:06.167Z,5.88
2022-12-23T05:32:29.908Z,5.88
2022-12-23T05:35:51.848Z,5.92
2022-12-23T05:39:14.956Z,5.92
2022-12-23T05:42:36.407Z,5.94
2022-12-23T05:45:58.328Z,5.94
2022-12-23T05:49:20.042Z,5.92
2022-12-23T05:52:41.824Z,5.92
2022-12-23T05:56:07.037Z,5.90
2022-12-23T05:59:31.294Z,5.89
2022-12-23T06:02:54.250Z,5.86
2022-12-23T06:06:16.176Z,5.85
2022-12-23T06:09:38.011Z,5.88
2022-12-23T06:13:00.689Z,5.88
2022-12-23T06:16:22.721Z,5.91
2022-12-23T06:19:44.369Z,5.91
2022-12-23T06:23:06.115Z,5.93
2022-12-23T06:26:27.981Z,5.84
2022-12-23T06:29:51.098Z,5.74
2022-12-23T06:33:12.189Z,5.77
2022-12-23T06:36:33.875Z,5.82
2022-12-23T06:39:55.292Z,5.82
2022-12-23T06:43:17.355Z,5.84
2022-12-23T06:46:40.368Z,5.84
2022-12-23T06:50:01.917Z,5.80
2022-12-23T06:53:23.772Z,5.76
2022-12-23T06:56:45.177Z,5.74
2022-12-23T07:00:08.277Z,5.72
2022-12-23T07:03:32.833Z,5.74
2022-12-23T07:06:54.617Z,5.75
2022-12-23T07:10:16.566Z,5.71
2022-12-23T07:13:38.247Z,5.69
2022-12-23T07:17:00.125Z,5.70
2022-12-23T07:20:23.119Z,5.73
2022-12-23T07:23:44.708Z,5.74
2022-12-23T07:27:06.588Z,5.75
2022-12-23T07:30:29.152Z,5.77
2022-12-23T07:33:50.595Z,5.79
2022-12-23T07:37:13.901Z,5.80
2022-12-23T07:40:36.055Z,5.78
2022-12-23T07:43:57.606Z,5.75
2022-12-23T07:47:19.323Z,5.76
2022-12-23T07:50:41.123Z,5.78
2022-12-23T07:54:03.845Z,5.79
2022-12-23T07:57:25.413Z,5.80
2022-12-23T08:00:46.978Z,5.84
2022-12-23T08:04:09.143Z,5.84
2022-12-23T08:07:30.682Z,5.84
2022-12-23T08:10:58.226Z,5.86
2022-12-23T08:14:20.093Z,5.88
2022-12-23T08:17:41.797Z,5.86
2022-12-23T08:21:14.762Z,5.90
2022-12-23T08:24:36.077Z,5.97
2022-12-23T08:27:59.235Z,5.98
2022-12-23T08:31:22.913Z,6.04
2022-12-23T08:34:44.373Z,6.10
2022-12-23T08:38:07.492Z,6.17
2022-12-23T08:41:31.203Z,6.22
2022-12-23T08:44:54.155Z,6.28
2022-12-23T08:48:16.363Z,6.30
2022-12-23T08:51:38.793Z,6.34
2022-12-23T08:55:00.186Z,6.38
2022-12-23T08:58:22.139Z,6.41
2022-12-23T09:01:45.478Z,6.45
2022-12-23T09:05:07.128Z,6.49
2022-12-23T09:08:28.631Z,6.50
2022-12-23T09:11:50.573Z,6.54
2022-12-23T09:15:12.453Z,6.50
2022-12-23T09:18:35.712Z,6.53
2022-12-23T09:21:57.074Z,6.54
2022-12-23T09:25:18.655Z,6.55
2022-12-23T09:28:41.181Z,6.57
2022-12-23T09:32:02.558Z,6.61
2022-12-23T09:35:25.682Z,6.65
2022-12-23T09:38:47.713Z,6.69
2022-12-23T09:42:28.030Z,6.72
2022-12-23T09:46:00.301Z,6.70
2022-12-23T09:49:24.381Z,6.70
2022-12-23T09:52:55.520Z,6.74
2022-12-23T09:56:24.504Z,6.79
2022-12-23T10:00:02.939Z,6.83
2022-12-23T10:03:30.097Z,6.87
2022-12-23T10:07:02.824Z,6.91
2022-12-23T10:10:33.883Z,6.94
2022-12-23T10:13:58.795Z,6.96
2022-12-23T10:17:28.112Z,7.00
2022-12-23T10:20:54.963Z,7.00
2022-12-23T10:24:22.809Z,7.03
2022-12-23T10:27:46.317Z,7.02
2022-12-23T10:35:09.053Z,7.05
2022-12-23T10:38:52.228Z,7.08
2022-12-23T10:42:25.568Z,7.12
2022-12-23T10:45:59.159Z,7.12
2022-12-23T10:49:31.654Z,7.16
2022-12-23T10:52:55.215Z,7.19
2022-12-23T10:56:18.226Z,7.20
2022-12-23T10:59:40.830Z,7.25
2022-12-23T11:03:16.651Z,7.26
2022-12-23T11:06:42.047Z,7.29
2022-12-23T11:10:06.361Z,7.22
2022-12-23T11:13:36.619Z,7.21
2022-12-23T11:16:58.524Z,7.28
2022-12-23T11:20:21.723Z,7.31
2022-12-23T11:23:43.189Z,7.33
2022-12-23T11:27:07.360Z,7.26
2022-12-23T11:30:31.155Z,7.28
2022-12-23T11:33:59.388Z,7.31
2022-12-23T11:37:35.714Z,7.32
2022-12-23T11:40:58.069Z,7.39
2022-12-23T11:44:23.497Z,7.42
2022-12-23T11:47:45.236Z,7.46
2022-12-23T11:51:07.133Z,7.44
2022-12-23T11:54:30.718Z,7.46
2022-12-23T11:57:53.595Z,7.43
2022-12-23T12:01:18.894Z,7.47
2022-12-23T12:04:41.854Z,7.44
2022-12-23T12:08:06.841Z,7.52
2022-12-23T12:11:33.999Z,7.55
2022-12-23T12:14:57.666Z,7.57
2022-12-23T12:18:22.052Z,7.60
2022-12-23T12:21:45.003Z,7.65
2022-12-23T12:25:18.717Z,7.66
2022-12-23T12:28:44.162Z,7.70
2022-12-23T12:32:10.910Z,7.72
2022-12-23T12:35:37.901Z,7.64
2022-12-23T12:39:00.912Z,7.70
2022-12-23T12:42:27.816Z,7.70
2022-12-23T12:45:54.881Z,7.70
2022-12-23T12:49:23.538Z,7.73
2022-12-23T12:52:45.423Z,7.70
2022-12-23T12:56:13.235Z,7.72
2022-12-23T12:59:37.758Z,7.74
2022-12-23T13:03:24.192Z,7.72
2022-12-23T13:06:53.143Z,7.77
2022-12-23T13:10:24.399Z,7.80
2022-12-23T13:13:53.495Z,7.80
2022-12-23T13:17:22.803Z,7.82
2022-12-23T13:20:50.900Z,7.85
2022-12-23T13:24:22.136Z,7.86
2022-12-23T13:27:50.484Z,7.84
2022-12-23T13:31:18.411Z,7.86
2022-12-23T13:34:49.925Z,7.84
2022-12-23T13:38:29.199Z,7.86
2022-12-23T13:41:57.380Z,7.87
2022-12-23T13:45:28.689Z,7.88
2022-12-23T13:48:57.636Z,7.87
2022-12-23T13:52:29.869Z,7.85
2022-12-23T13:56:10.197Z,7.84
2022-12-23T13:59:41.008Z,7.84
2022-12-23T14:03:19.219Z,7.85
2022-12-23T14:06:45.866Z,7.87
2022-12-23T14:10:13.203Z,7.86
2022-12-23T14:13:44.079Z,7.85
2022-12-23T14:17:16.496Z,7.86
2022-12-23T14:20:49.407Z,7.85
2022-12-23T14:24:35.657Z,7.85
2022-12-23T14:28:05.606Z,7.85
2022-12-23T14:31:37.050Z,7.83
2022-12-23T14:35:19.271Z,7.84
2022-12-23T14:38:41.136Z,7.84
2022-12-23T14:42:06.782Z,7.78
2022-12-23T14:45:36.052Z,7.77
2022-12-23T14:49:39.424Z,7.76
2022-12-23T14:53:02.320Z,7.76
2022-12-23T14:56:34.603Z,7.73
2022-12-23T15:00:02.606Z,7.70
2022-12-23T15:03:24.312Z,7.69
2022-12-23T15:06:50.108Z,7.70
2022-12-23T15:10:19.457Z,7.70
2022-12-23T15:13:41.222Z,7.70
2022-12-23T15:17:16.323Z,7.69
2022-12-23T15:20:38.468Z,7.69
2022-12-23T15:24:01.395Z,7.67
2022-12-23T15:27:28.355Z,7.67
2022-12-23T15:30:53.528Z,7.67
2022-12-23T15:34:23.168Z,7.66
2022-12-23T15:37:45.245Z,7.67
2022-12-23T15:41:18.550Z,7.66
2022-12-23T15:44:40.771Z,7.64
2022-12-23T15:48:04.367Z,7.64
2022-12-23T15:51:58.329Z,7.62
2022-12-23T15:55:16.560Z,7.63
2022-12-23T15:58:43.051Z,7.61
2022-12-23T16:02:40.533Z,7.58
2022-12-23T16:05:52.974Z,7.56
2022-12-23T16:09:30.894Z,7.56
2022-12-23T16:12:53.667Z,7.53
2022-12-23T16:16:32.204Z,7.51
2022-12-23T16:19:56.060Z,7.50
2022-12-23T16:23:18.913Z,7.48
2022-12-23T16:26:42.308Z,7.47
2022-12-23T16:30:12.258Z,7.44
2022-12-23T16:33:39.745Z,7.42
2022-12-23T16:37:01.440Z,7.41
2022-12-23T16:40:24.440Z,7.39
2022-12-23T16:43:52.142Z,7.38
2022-12-23T16:47:18.603Z,7.36
2022-12-23T16:50:41.644Z,7.35
2022-12-23T16:54:03.472Z,7.33
2022-12-23T16:57:25.047Z,7.32
2022-12-23T17:00:47.490Z,7.30
2022-12-23T17:04:09.954Z,7.26
2022-12-23T17:07:32.700Z,7.26
2022-12-23T17:10:54.099Z,7.26
2022-12-23T17:14:18.101Z,7.21
2022-12-23T17:17:40.382Z,7.20
2022-12-23T17:21:02.117Z,7.20
2022-12-23T17:24:26.646Z,7.21
2022-12-23T17:27:50.027Z,7.19
2022-12-23T17:31:15.393Z,7.18
2022-12-23T17:34:38.868Z,7.15
2022-12-23T17:38:02.195Z,7.12
2022-12-23T17:41:28.945Z,7.11
2022-12-23T17:44:50.540Z,7.09
2022-12-23T17:48:17.969Z,7.06
2022-12-23T17:51:43.547Z,7.06
2022-12-23T17:55:05.387Z,7.02
2022-12-23T17:58:28.155Z,7.01
2022-12-23T18:01:50.393Z,6.98
2022-12-23T18:05:22.836Z,6.99
2022-12-23T18:08:44.462Z,6.98
2022-12-23T18:12:07.171Z,6.97
2022-12-23T18:15:35.241Z,6.95
2022-12-23T18:18:57.397Z,6.95
2022-12-23T18:22:21.164Z,6.88
2022-12-23T18:25:43.032Z,6.82
2022-12-23T18:29:04.472Z,6.77
2022-12-23T18:32:29.206Z,6.73
2022-12-23T18:35:51.315Z,6.72
2022-12-23T18:39:12.771Z,6.70
2022-12-23T18:42:34.460Z,6.68
2022-12-23T18:45:56.239Z,6.61
2022-12-23T18:49:19.562Z,6.57
2022-12-23T18:52:41.235Z,6.54
2022-12-23T18:56:02.875Z,6.54
2022-12-23T18:59:30.020Z,6.54
2022-12-23T19:02:53.940Z,6.51
2022-12-23T19:06:17.110Z,6.49
2022-12-23T19:09:38.706Z,6.48
2022-12-23T19:13:00.603Z,6.46
2022-12-23T19:16:22.653Z,6.44
2022-12-23T19:19:44.396Z,6.44
2022-12-23T19:23:07.065Z,6.44
2022-12-23T19:26:28.993Z,6.41
2022-12-23T19:29:50.599Z,6.39
2022-12-23T19:33:13.266Z,6.37
2022-12-23T19:36:35.313Z,6.35
2022-12-23T19:39:58.259Z,6.31
2022-12-23T19:43:20.019Z,6.29
2022-12-23T19:46:42.162Z,6.26
2022-12-23T19:50:03.508Z,6.25
2022-12-23T19:53:25.334Z,6.22
2022-12-23T19:56:51.878Z,6.25
2022-12-23T20:00:16.009Z,6.23
2022-12-23T20:03:38.622Z,6.25
2022-12-23T20:07:00.421Z,6.25
2022-12-23T20:10:21.677Z,6.28
2022-12-23T20:13:45.693Z,6.28
2022-12-23T20:17:07.418Z,6.30
2022-12-23T20:20:29.536Z,6.35
2022-12-23T20:23:51.440Z,6.35
2022-12-23T20:27:15.782Z,6.31
2022-12-23T20:30:39.097Z,6.31
2022-12-23T20:34:01.514Z,6.31
2022-12-23T20:37:23.285Z,6.32
2022-12-23T20:40:45.146Z,6.32
2022-12-23T20:44:33.956Z,6.31
2022-12-23T20:47:49.601Z,6.34
2022-12-23T20:51:13.867Z,6.34
2022-12-23T20:54:35.225Z,6.31
2022-12-23T20:57:57.135Z,6.31
2022-12-23T21:01:18.916Z,6.30
2022-12-23T21:04:42.013Z,6.31
2022-12-23T21:08:03.836Z,6.29
2022-12-23T21:11:25.437Z,6.28
2022-12-23T21:14:47.060Z,6.28
2022-12-23T21:18:08.737Z,6.26
2022-12-23T21:21:32.081Z,6.28
2022-12-23T21:24:53.336Z,6.28
2022-12-23T21:28:15.142Z,6.26
2022-12-23T21:31:38.851Z,6.28
2022-12-23T21:35:01.655Z,6.21
2022-12-23T21:38:24.696Z,6.23
2022-12-23T21:41:46.015Z,6.25
2022-12-23T21:45:08.834Z,6.24
2022-12-23T21:48:32.518Z,6.23
2022-12-23T21:51:54.381Z,6.24
2022-12-23T21:55:18.150Z,6.25
2022-12-23T21:58:40.257Z,6.22
2022-12-23T22:02:01.733Z,6.25
2022-12-23T22:05:23.404Z,6.24
2022-12-23T22:08:45.187Z,6.23
2022-12-23T22:12:08.619Z,6.22
2022-12-23T22:15:30.298Z,6.22
2022-12-23T22:18:53.099Z,6.22
2022-12-23T22:22:14.693Z,6.21
2022-12-23T22:25:36.378Z,6.21
2022-12-23T22:29:01.181Z,6.21
2022-12-23T22:32:22.839Z,6.20
2022-12-23T22:35:44.284Z,6.21
2022-12-23T22:39:07.775Z,6.21
2022-12-23T22:42:29.573Z,6.22
2022-12-23T22:45:58.589Z,6.24
2022-12-23T22:49:20.431Z,6.25
2022-12-23T22:52:42.356Z,6.25
2022-12-23T22:56:05.251Z,6.27
2022-12-23T22:59:27.152Z,6.27
2022-12-23T23:02:50.104Z,6.28
2022-12-23T23:06:12.253Z,6.30
2022-12-23T23:09:33.551Z,6.33
2022-12-23T23:12:55.230Z,6.33
2022-12-23T23:16:17.077Z,6.35
2022-12-23T23:19:39.987Z,6.36
2022-12-23T23:23:01.668Z,6.36
2022-12-23T23:26:26.804Z,6.37
2022-12-23T23:29:48.328Z,6.35
2022-12-23T23:33:11.499Z,6.34
2022-12-23T23:36:34.396Z,6.36
2022-12-23T23:39:55.595Z,6.35
2022-12-23T23:43:17.294Z,6.36
2022-12-23T23:46:39.309Z,6.36
2022-12-23T23:50:00.834Z,6.36
2022-12-23T23:53:23.485Z,6.36
2022-12-23T23:56:45.163Z,6.35
